ケアンズ の空港の天気 - METARとTAF

ケアンズ国際空港 ( YBCS / CNS ) - オーストラリア クイーンズランド州ケアンズ
飛行場実況気象(Metar)
観測時間11/18 06:00 AEST (11/17 20:00 UTC)
風向・風速南東 5m/s
視程10km以上
天気現象
少しの雲 雲底高度 850m
気温21℃
湿度83%
気圧1011hPa
METARYBCS 172000Z 14010KT 9999 FEW028 21/18 Q1011
過去の天気等 Google飛行場航空写真 Wunderground天気予報

過去48時間のMETAR

飛行場予報(TAF)
発表時間: 11/18 03:32 AEST (11/17 17:32 UTC)
予報対象時間: 18日4時 AEST ~ 19日4時 AEST
風向・風速南東 4m/s
視程10km以上
少しの雲 雲底高度 760m
18日11時 AEST から
風向・風速東 7m/s
視程10km以上
少しの雲 雲底高度 1370m
18日18時 AEST から
風向・風速南東 4m/s
視程10km以上
少しの雲 雲底高度 760m
TAF YBCS 171732Z 1718/1818 13008KT 9999 FEW025
FM180100 08014KT 9999 FEW045
FM180800 13008KT 9999 FEW025